Time;durP1;ratioP1;P1;durP2;ratioP2;P2;SDS_P1;SDS_P2;PMS_P1;PMS_P2;Temp;Humidity;BMP_temperature;BMP_pressure;BME280_temperature;BME280_humidity;BME280_pressure;Samples;Min_cycle;Max_cycle;Signal;HPM_P1;HPM_P2
2022/02/15 00:01:13;;;;;;;0.93;0.50;;;;;;;4.51;100.00;95154.97;5125166;22;24846;-76
2022/02/15 00:03:39;;;;;;;0.50;0.50;;;;;;;4.51;100.00;95151.59;5073111;28;24415;-75
2022/02/15 00:06:06;;;;;;;0.80;0.60;;;;;;;4.50;100.00;95155.06;5073027;28;24427;-77
2022/02/15 00:08:32;;;;;;;0.50;0.40;;;;;;;4.51;100.00;95161.84;5086851;28;24509;-76
2022/02/15 00:10:58;;;;;;;0.80;0.63;;;;;;;4.55;100.00;95155.66;5093026;28;24434;-76
2022/02/15 00:13:25;;;;;;;1.80;0.87;;;;;;;4.47;100.00;95157.78;5092665;28;24429;-77
2022/02/15 00:15:53;;;;;;;0.80;0.57;;;;;;;4.42;100.00;95152.06;5092923;28;24434;-77
2022/02/15 00:18:19;;;;;;;1.10;0.60;;;;;;;4.40;100.00;95162.38;5092551;28;24442;-76
2022/02/15 00:20:45;;;;;;;0.55;0.55;;;;;;;4.40;100.00;95152.09;5092901;28;24430;-75
2022/02/15 00:23:12;;;;;;;1.10;0.60;;;;;;;4.41;100.00;95147.81;5092850;28;24492;-76
2022/02/15 00:25:39;;;;;;;0.60;0.47;;;;;;;4.46;100.00;95149.25;5092786;28;24426;-75
2022/02/15 00:28:05;;;;;;;0.63;0.52;;;;;;;4.44;100.00;95145.94;5092847;28;24426;-77
2022/02/15 00:30:32;;;;;;;0.40;0.40;;;;;;;4.44;100.00;95140.78;5092563;28;24982;-77
2022/02/15 00:33:00;;;;;;;0.50;0.43;;;;;;;4.41;100.00;95142.69;5092704;28;24969;-77
2022/02/15 00:35:26;;;;;;;0.40;0.40;;;;;;;4.38;100.00;95141.13;5092617;28;24467;-76
2022/02/15 00:37:53;;;;;;;1.00;0.60;;;;;;;4.42;100.00;95145.19;5092457;28;24473;-75
2022/02/15 00:40:19;;;;;;;0.40;0.40;;;;;;;4.35;100.00;95143.81;5092446;28;24772;-76
2022/02/15 00:42:47;;;;;;;0.50;0.50;;;;;;;4.28;100.00;95142.47;5092296;28;24434;-76
2022/02/15 00:45:14;;;;;;;0.65;0.60;;;;;;;4.27;100.00;95140.81;5092519;28;24468;-77
2022/02/15 00:47:41;;;;;;;1.25;0.60;;;;;;;4.31;100.00;95137.19;5091786;28;24425;-75
2022/02/15 00:50:10;;;;;;;1.25;0.60;;;;;;;4.29;100.00;95128.72;5091975;28;24430;-76
2022/02/15 00:52:36;;;;;;;1.08;0.55;;;;;;;4.29;100.00;95139.81;5091930;28;24981;-76
2022/02/15 00:55:04;;;;;;;0.75;0.45;;;;;;;4.25;100.00;95140.84;5092233;28;24433;-75
2022/02/15 00:57:30;;;;;;;0.80;0.50;;;;;;;4.24;100.00;95136.66;5092181;28;24467;-76
2022/02/15 00:59:57;;;;;;;1.00;0.77;;;;;;;4.22;100.00;95143.56;5092488;28;24446;-76
2022/02/15 01:02:23;;;;;;;1.73;0.57;;;;;;;4.23;100.00;95142.69;5091644;28;24430;-76
2022/02/15 01:04:50;;;;;;;2.10;0.50;;;;;;;4.28;100.00;95148.41;5091643;28;24945;-77
2022/02/15 01:07:18;;;;;;;0.75;0.65;;;;;;;4.25;100.00;95146.00;5091465;28;24792;-76
2022/02/15 01:09:44;;;;;;;1.33;0.57;;;;;;;4.25;100.00;95153.69;5091965;28;24426;-76
2022/02/15 01:12:11;;;;;;;0.50;0.50;;;;;;;4.12;100.00;95148.31;5091736;28;24456;-76
2022/02/15 01:14:38;;;;;;;1.45;0.60;;;;;;;4.07;100.00;95163.06;5091800;28;24421;-76
2022/02/15 01:17:05;;;;;;;1.27;0.65;;;;;;;4.08;100.00;95154.50;5091377;28;24528;-76
2022/02/15 01:19:31;;;;;;;1.95;0.77;;;;;;;4.11;100.00;95148.38;5091514;28;24464;-76
2022/02/15 01:21:57;;;;;;;2.55;0.85;;;;;;;4.10;100.00;95152.66;5091421;28;24453;-77
2022/02/15 01:24:25;;;;;;;1.30;0.70;;;;;;;4.06;100.00;95153.72;5091420;28;24838;-76
2022/02/15 01:26:52;;;;;;;1.75;0.90;;;;;;;4.05;100.00;95151.25;5090931;28;24970;-76
2022/02/15 01:29:18;;;;;;;0.67;0.47;;;;;;;4.06;100.00;95155.47;5091440;28;24468;-75
2022/02/15 01:31:45;;;;;;;1.42;0.77;;;;;;;4.07;100.00;95157.94;5091345;28;24986;-76
2022/02/15 01:34:12;;;;;;;0.90;0.70;;;;;;;4.09;100.00;95163.84;5091774;28;24422;-76
2022/02/15 01:36:38;;;;;;;0.75;0.60;;;;;;;4.08;100.00;95164.75;5091027;28;24442;-76
2022/02/15 01:39:05;;;;;;;0.90;0.80;;;;;;;4.06;100.00;95161.41;5091059;28;24450;-75
2022/02/15 01:41:33;;;;;;;3.00;0.90;;;;;;;4.11;100.00;95161.19;5091223;28;24429;-76
2022/02/15 01:43:59;;;;;;;1.27;0.80;;;;;;;3.94;100.00;95154.31;5091289;28;24434;-75
2022/02/15 01:46:26;;;;;;;0.85;0.65;;;;;;;3.90;100.00;95157.91;5091069;28;24433;-76
2022/02/15 01:48:52;;;;;;;2.65;0.80;;;;;;;3.95;100.00;95158.53;5091236;28;24422;-76
2022/02/15 01:51:19;;;;;;;1.33;0.70;;;;;;;3.96;100.00;95155.03;5091191;28;24441;-76
2022/02/15 01:53:46;;;;;;;0.90;0.77;;;;;;;3.92;100.00;95150.16;5091144;28;24414;-76
2022/02/15 01:56:14;;;;;;;0.95;0.60;;;;;;;3.84;100.00;95163.31;5091214;28;24433;-76
2022/02/15 01:58:42;;;;;;;2.88;0.93;;;;;;;3.71;100.00;95154.50;5091111;28;24479;-75
2022/02/15 02:01:09;;;;;;;1.10;0.73;;;;;;;3.73;100.00;95151.00;5089813;28;24430;-75
2022/02/15 02:03:35;;;;;;;0.60;0.60;;;;;;;3.77;100.00;95152.50;5091286;28;24422;-75
2022/02/15 02:06:01;;;;;;;0.90;0.70;;;;;;;3.72;100.00;95148.50;5091117;28;24566;-77
2022/02/15 02:08:30;;;;;;;1.00;0.80;;;;;;;3.60;100.00;95155.84;5091094;28;24464;-76
2022/02/15 02:10:57;;;;;;;0.88;0.55;;;;;;;3.48;100.00;95145.31;5091184;28;24950;-76
2022/02/15 02:13:24;;;;;;;1.42;0.60;;;;;;;3.51;100.00;95145.19;5080195;28;24452;-77
2022/02/15 02:15:51;;;;;;;1.05;0.80;;;;;;;3.55;100.00;95146.72;5050675;28;24442;-76
2022/02/15 02:18:18;;;;;;;1.17;0.75;;;;;;;3.59;100.00;95143.09;5050348;28;24462;-77
2022/02/15 02:20:45;;;;;;;1.05;0.73;;;;;;;3.61;100.00;95149.00;5050326;28;24956;-76
2022/02/15 02:23:14;;;;;;;1.98;1.00;;;;;;;3.52;100.00;95145.13;5050269;28;24967;-75
2022/02/15 02:25:41;;;;;;;1.50;0.90;;;;;;;3.49;100.00;95145.28;5050238;28;24793;-76
2022/02/15 02:28:08;;;;;;;1.40;0.90;;;;;;;3.44;100.00;95146.38;5050379;28;24454;-76
2022/02/15 02:30:35;;;;;;;1.42;1.02;;;;;;;3.35;100.00;95147.63;5050240;28;24433;-76
2022/02/15 02:33:01;;;;;;;4.07;1.40;;;;;;;3.42;100.00;95148.19;5058409;28;24446;-76
2022/02/15 02:35:28;;;;;;;1.40;1.00;;;;;;;3.43;100.00;95157.50;5063901;28;24465;-76
2022/02/15 02:37:54;;;;;;;2.50;1.10;;;;;;;3.31;100.00;95146.91;5070215;28;24499;-76
2022/02/15 02:40:23;;;;;;;1.77;1.10;;;;;;;3.23;100.00;95156.66;5070248;28;24811;-76
2022/02/15 02:42:49;;;;;;;2.30;1.23;;;;;;;3.05;100.00;95158.28;5070319;28;24419;-77
2022/02/15 02:45:17;;;;;;;3.00;1.65;;;;;;;2.95;100.00;95154.47;5070093;28;25163;-77
2022/02/15 02:47:45;;;;;;;2.13;1.33;;;;;;;2.93;100.00;95148.59;5070243;28;24421;-76
2022/02/15 02:50:12;;;;;;;1.63;1.10;;;;;;;3.03;100.00;95157.50;5061844;28;24983;-76
2022/02/15 02:52:39;;;;;;;1.65;1.10;;;;;;;3.00;100.00;95155.09;5090621;28;24461;-76
2022/02/15 02:55:07;;;;;;;1.67;1.13;;;;;;;3.04;100.00;95154.09;5090428;28;24495;-77
2022/02/15 02:57:35;;;;;;;1.80;1.05;;;;;;;3.10;100.00;95168.31;5090280;28;24433;-76
2022/02/15 03:00:04;;;;;;;3.97;1.20;;;;;;;3.19;100.00;95172.19;5084658;28;24520;-77
2022/02/15 03:02:30;;;;;;;1.92;1.08;;;;;;;3.25;100.00;95172.75;5069779;28;24438;-76
2022/02/15 03:04:57;;;;;;;1.33;0.88;;;;;;;3.31;100.00;95176.81;5070047;28;24784;-77
2022/02/15 03:07:23;;;;;;;1.05;0.80;;;;;;;3.39;100.00;95180.69;5070002;28;24422;-77
2022/02/15 03:09:49;;;;;;;2.50;1.20;;;;;;;3.42;100.00;95168.66;5070165;28;24855;-76
2022/02/15 03:12:16;;;;;;;1.73;0.80;;;;;;;3.38;100.00;95173.06;5071376;28;24461;-76
2022/02/15 03:14:44;;;;;;;5.78;0.90;;;;;;;3.40;100.00;95177.22;5073951;28;24785;-76
2022/02/15 03:17:11;;;;;;;1.00;0.80;;;;;;;3.45;100.00;95169.34;5073831;28;24469;-76
2022/02/15 03:19:38;;;;;;;3.08;1.10;;;;;;;3.45;100.00;95166.78;5073793;28;24469;-76
2022/02/15 03:22:04;;;;;;;1.67;0.93;;;;;;;3.38;100.00;95180.75;5074015;28;24430;-76
2022/02/15 03:24:33;;;;;;;1.70;0.87;;;;;;;3.29;100.00;95173.47;5073934;28;24776;-76
2022/02/15 03:26:59;;;;;;;1.73;1.07;;;;;;;3.33;100.00;95180.09;5073380;28;24430;-77
2022/02/15 03:29:26;;;;;;;1.77;0.85;;;;;;;3.38;100.00;95185.88;5073119;28;24761;-76
2022/02/15 03:31:54;;;;;;;3.30;1.00;;;;;;;3.38;100.00;95198.69;5073491;28;24430;-77
2022/02/15 03:34:20;;;;;;;2.03;0.90;;;;;;;3.35;100.00;95189.41;5073122;28;24422;-76
2022/02/15 03:36:47;;;;;;;1.77;0.85;;;;;;;3.26;100.00;95189.78;5073150;28;24434;-77
2022/02/15 03:39:13;;;;;;;1.60;0.98;;;;;;;3.30;100.00;95191.34;5073302;28;24442;-77
2022/02/15 03:44:24;;;;;;;2.20;1.00;;;;;;;3.38;100.00;95196.94;5073029;28;24518;-77
2022/02/15 03:46:52;;;;;;;2.00;1.02;;;;;;;3.28;100.00;95199.97;5072645;28;24434;-77
2022/02/15 03:49:20;;;;;;;2.45;1.02;;;;;;;3.29;100.00;95210.13;5073061;28;24419;-77
2022/02/15 03:51:47;;;;;;;1.17;0.73;;;;;;;3.17;100.00;95210.66;5073014;28;24963;-75
2022/02/15 03:54:13;;;;;;;1.80;1.00;;;;;;;3.10;100.00;95210.09;5073045;28;24444;-76
2022/02/15 03:56:40;;;;;;;1.17;0.73;;;;;;;3.15;100.00;95217.56;5072635;28;24834;-76
2022/02/15 03:59:06;;;;;;;2.00;1.07;;;;;;;3.16;100.00;95214.13;5072573;28;24971;-76
2022/02/15 04:01:33;;;;;;;1.30;0.73;;;;;;;3.19;100.00;95219.13;5072486;28;24476;-76
2022/02/15 04:03:59;;;;;;;2.88;1.08;;;;;;;3.10;100.00;95222.88;5072918;28;24476;-76
2022/02/15 04:06:27;;;;;;;1.73;0.88;;;;;;;3.00;100.00;95218.22;5072872;28;24422;-75
2022/02/15 04:08:53;;;;;;;1.67;1.10;;;;;;;3.03;100.00;95221.47;5080800;28;24997;-77
2022/02/15 04:11:20;;;;;;;1.00;0.77;;;;;;;3.08;100.00;95211.91;5072583;28;24982;-77
2022/02/15 04:13:46;;;;;;;1.63;0.93;;;;;;;3.17;100.00;95217.50;5072401;28;24488;-76
2022/02/15 04:16:13;;;;;;;1.25;0.80;;;;;;;3.17;100.00;95210.66;5072749;28;24428;-76
2022/02/15 04:18:43;;;;;;;1.50;0.90;;;;;;;3.20;100.00;95215.66;5072497;28;24788;-76
2022/02/15 04:21:12;;;;;;;1.73;0.90;;;;;;;3.21;100.00;95222.41;5072355;28;24813;-76
2022/02/15 04:23:39;;;;;;;1.75;0.85;;;;;;;3.20;100.00;95220.78;5071425;28;24426;-76
2022/02/15 04:26:06;;;;;;;2.13;1.00;;;;;;;3.21;100.00;95222.41;5072154;28;24449;-76
2022/02/15 04:28:32;;;;;;;1.38;0.90;;;;;;;3.23;100.00;95227.50;5071792;28;24487;-77
2022/02/15 04:30:59;;;;;;;3.90;0.90;;;;;;;3.22;100.00;95226.63;5072179;28;24450;-76
2022/02/15 04:33:25;;;;;;;1.80;0.90;;;;;;;3.28;100.00;95225.56;5071976;28;24589;-76
2022/02/15 04:35:52;;;;;;;1.30;0.77;;;;;;;3.28;100.00;95226.38;5072072;28;24427;-77
2022/02/15 04:38:18;;;;;;;1.70;0.80;;;;;;;3.25;100.00;95226.50;5071919;28;24426;-76
2022/02/15 04:40:46;;;;;;;1.63;0.97;;;;;;;3.29;100.00;95232.34;5071882;28;24461;-75
2022/02/15 04:43:12;;;;;;;1.42;0.98;;;;;;;3.30;100.00;95229.72;5071915;28;24430;-76
2022/02/15 04:45:39;;;;;;;5.05;1.20;;;;;;;3.20;100.00;95225.88;5072157;28;24431;-76
2022/02/15 04:48:05;;;;;;;1.55;1.00;;;;;;;3.14;100.00;95229.53;5072138;28;24830;-76
2022/02/15 04:50:32;;;;;;;1.20;1.00;;;;;;;3.09;100.00;95240.88;5071989;28;24423;-76
2022/02/15 04:52:58;;;;;;;2.50;0.80;;;;;;;3.06;100.00;95246.09;5072129;28;24492;-76
2022/02/15 04:55:25;;;;;;;1.50;0.80;;;;;;;3.04;100.00;95253.84;5072893;28;24438;-77
2022/02/15 04:57:53;;;;;;;2.47;1.20;;;;;;;2.90;100.00;95251.84;5072858;28;24823;-77
2022/02/15 05:00:19;;;;;;;2.03;0.88;;;;;;;2.83;100.00;95254.72;5072833;28;24458;-77
2022/02/15 05:02:46;;;;;;;1.52;0.88;;;;;;;2.88;100.00;95250.25;5072239;28;24426;-77
2022/02/15 05:05:12;;;;;;;1.13;0.90;;;;;;;2.89;100.00;95252.75;5071672;28;24415;-77
2022/02/15 05:07:38;;;;;;;1.92;1.00;;;;;;;2.80;100.00;95259.97;5071512;28;24484;-77
2022/02/15 05:10:06;;;;;;;2.22;1.08;;;;;;;2.80;100.00;95262.53;5071666;28;24805;-77
2022/02/15 05:12:33;;;;;;;2.55;1.10;;;;;;;2.87;100.00;95269.06;5072998;28;24427;-77
2022/02/15 05:15:00;;;;;;;2.15;1.25;;;;;;;2.97;100.00;95274.63;5074699;28;24415;-76
2022/02/15 05:17:27;;;;;;;4.63;2.57;;;;;;;3.03;100.00;95274.38;5073314;28;24437;-77
2022/02/15 05:19:54;;;;;;;29.92;18.40;;;;;;;3.07;100.00;95281.00;5071529;28;24505;-78
2022/02/15 05:22:20;;;;;;;26.90;20.20;;;;;;;3.01;100.00;95284.69;5071417;28;24426;-77
2022/02/15 05:24:47;;;;;;;18.63;14.57;;;;;;;3.06;100.00;95281.91;5071228;28;24979;-77
2022/02/15 05:27:13;;;;;;;14.13;9.43;;;;;;;3.10;100.00;95281.72;5071469;28;24430;-77
2022/02/15 05:29:40;;;;;;;2.90;1.88;;;;;;;2.94;100.00;95288.38;5071537;28;24427;-76
2022/02/15 05:32:09;;;;;;;3.58;1.33;;;;;;;2.84;100.00;95282.78;5071362;28;24427;-77
2022/02/15 05:34:35;;;;;;;3.15;1.17;;;;;;;2.83;100.00;95280.31;5071048;28;24426;-77
2022/02/15 05:37:02;;;;;;;2.65;1.20;;;;;;;2.85;100.00;95287.00;5070712;28;24422;-77
2022/02/15 05:39:28;;;;;;;2.55;1.20;;;;;;;2.79;100.00;95289.81;5070743;28;24442;-76
2022/02/15 05:41:56;;;;;;;2.17;0.90;;;;;;;2.71;100.00;95298.66;5071582;28;24418;-77
2022/02/15 05:44:23;;;;;;;2.53;1.30;;;;;;;2.63;100.00;95304.94;5070993;28;24423;-77
2022/02/15 05:46:49;;;;;;;3.03;1.45;;;;;;;2.62;100.00;95302.44;5070916;28;24468;-77
2022/02/15 05:49:17;;;;;;;3.30;1.38;;;;;;;2.65;100.00;95307.44;5054456;28;24472;-77
2022/02/15 05:51:45;;;;;;;1.98;1.50;;;;;;;2.58;100.00;95306.00;5050776;28;24430;-76
2022/02/15 05:54:12;;;;;;;2.70;1.40;;;;;;;2.57;100.00;95312.03;5050536;28;24442;-76
2022/02/15 05:56:38;;;;;;;1.30;1.00;;;;;;;2.64;100.00;95313.44;5073790;28;24426;-76
2022/02/15 05:59:05;;;;;;;3.03;1.27;;;;;;;2.65;100.00;95313.38;5067261;28;24430;-76
2022/02/15 06:01:32;;;;;;;3.00;1.42;;;;;;;2.63;100.00;95319.44;5117096;22;24469;-75
2022/02/15 06:04:13;;;;;;;2.05;1.10;;;;;;;2.58;100.00;95322.16;5092911;28;24465;-74
2022/02/15 06:06:42;;;;;;;9.60;1.50;;;;;;;2.50;100.00;95324.19;5092186;28;24440;-77
2022/02/15 06:09:09;;;;;;;1.77;0.88;;;;;;;2.51;100.00;95325.03;5090683;28;24513;-74
2022/02/15 06:11:35;;;;;;;1.87;1.07;;;;;;;2.51;100.00;95327.59;5082579;28;24472;-75
2022/02/15 06:14:02;;;;;;;5.47;1.20;;;;;;;2.54;100.00;95333.41;5070307;28;24947;-75
2022/02/15 06:16:28;;;;;;;2.23;1.07;;;;;;;2.55;100.00;95340.19;5070049;28;24971;-73
2022/02/15 06:18:56;;;;;;;2.97;1.20;;;;;;;2.65;100.00;95343.22;5070025;28;24418;-75
2022/02/15 06:21:23;;;;;;;0.93;0.60;;;;;;;2.72;100.00;95342.09;5070297;28;24454;-75
2022/02/15 06:23:50;;;;;;;1.33;0.88;;;;;;;2.75;100.00;95346.28;5070414;28;24462;-74
2022/02/15 06:26:17;;;;;;;1.40;0.90;;;;;;;2.80;100.00;95344.34;5070201;28;24890;-75
2022/02/15 06:28:43;;;;;;;0.98;0.60;;;;;;;2.91;100.00;95352.44;5069977;28;24427;-74
2022/02/15 06:31:10;;;;;;;1.30;0.77;;;;;;;3.01;100.00;95361.41;5070033;28;24414;-75
2022/02/15 06:33:37;;;;;;;1.70;1.00;;;;;;;3.01;100.00;95350.34;5070432;28;24415;-75
2022/02/15 06:36:03;;;;;;;1.05;0.73;;;;;;;3.09;100.00;95358.56;5070054;28;24488;-75
2022/02/15 06:38:30;;;;;;;1.48;0.90;;;;;;;3.07;100.00;95358.59;5070103;28;24435;-76
2022/02/15 06:40:58;;;;;;;1.30;0.70;;;;;;;3.13;100.00;95362.66;5069873;28;24443;-76
2022/02/15 06:43:24;;;;;;;1.30;0.70;;;;;;;3.17;100.00;95364.19;5070130;28;24828;-75
2022/02/15 06:45:51;;;;;;;1.25;0.63;;;;;;;3.20;100.00;95370.91;5069799;28;24429;-74
2022/02/15 06:48:17;;;;;;;1.60;0.80;;;;;;;3.20;100.00;95374.31;5073204;28;24418;-74
2022/02/15 06:50:44;;;;;;;2.65;1.10;;;;;;;3.19;100.00;95377.78;5074201;28;24414;-74
2022/02/15 06:53:10;;;;;;;0.77;0.50;;;;;;;3.27;100.00;95380.03;5073730;28;24426;-75
2022/02/15 06:55:37;;;;;;;1.20;0.55;;;;;;;3.28;100.00;95391.91;5073770;28;24423;-74
2022/02/15 06:58:04;;;;;;;0.80;0.50;;;;;;;3.27;100.00;95387.69;5073635;28;24434;-76
2022/02/15 07:00:31;;;;;;;1.50;0.60;;;;;;;3.32;100.00;95391.72;5073442;28;24450;-76
2022/02/15 07:02:57;;;;;;;0.70;0.60;;;;;;;3.37;100.00;95405.19;5074614;28;24487;-76
2022/02/15 07:05:24;;;;;;;0.80;0.63;;;;;;;3.40;100.00;95407.59;5093837;28;24434;-73
2022/02/15 07:07:51;;;;;;;3.08;0.80;;;;;;;3.33;100.00;95413.84;5085867;28;24433;-73
2022/02/15 07:10:17;;;;;;;2.10;0.90;;;;;;;3.38;100.00;95421.38;5093845;28;24414;-73
2022/02/15 07:12:44;;;;;;;1.20;0.88;;;;;;;3.39;100.00;95426.41;5093035;28;24471;-74
2022/02/15 07:15:13;;;;;;;1.05;0.60;;;;;;;3.45;100.00;95422.78;5093498;28;24929;-74
2022/02/15 07:17:40;;;;;;;4.88;2.78;;;;;;;3.38;100.00;95432.44;5093089;28;24523;-74
2022/02/15 07:20:08;;;;;;;2.10;1.30;;;;;;;3.31;100.00;95433.56;5085031;28;24442;-74
2022/02/15 07:22:35;;;;;;;2.42;1.90;;;;;;;3.30;100.00;95425.94;5093170;28;24426;-74
2022/02/15 07:25:03;;;;;;;5.90;2.78;;;;;;;3.33;100.00;95421.53;5093032;28;24414;-78
2022/02/15 07:27:30;;;;;;;4.88;2.42;;;;;;;3.33;100.00;95426.66;5086409;28;24430;-75
2022/02/15 07:29:57;;;;;;;2.38;1.35;;;;;;;3.32;100.00;95427.56;5073359;28;24427;-75
2022/02/15 07:32:25;;;;;;;2.75;1.50;;;;;;;3.33;100.00;95431.78;5073221;28;24435;-75
2022/02/15 07:34:51;;;;;;;1.70;1.30;;;;;;;3.43;100.00;95439.09;5072998;28;24422;-75
2022/02/15 07:37:18;;;;;;;1.70;1.20;;;;;;;3.42;100.00;95443.38;5073175;28;24517;-74
2022/02/15 07:39:45;;;;;;;4.05;2.47;;;;;;;3.39;100.00;95448.63;5072877;28;24423;-75
2022/02/15 07:42:12;;;;;;;5.20;3.87;;;;;;;3.41;100.00;95449.38;5072407;28;24580;-73
2022/02/15 07:44:38;;;;;;;4.10;3.58;;;;;;;3.40;100.00;95457.97;5072933;28;24430;-75
2022/02/15 07:47:05;;;;;;;5.60;3.78;;;;;;;3.42;100.00;95458.75;5072749;28;24430;-75
2022/02/15 07:49:33;;;;;;;10.05;5.47;;;;;;;3.43;100.00;95462.97;5072981;28;24475;-76
2022/02/15 07:52:00;;;;;;;4.95;3.20;;;;;;;3.45;100.00;95465.47;5073135;28;24492;-77
2022/02/15 07:54:27;;;;;;;6.70;4.67;;;;;;;3.48;100.00;95465.34;5072717;28;24470;-75
2022/02/15 07:56:53;;;;;;;10.13;5.47;;;;;;;3.52;100.00;95467.75;5072756;28;24415;-76
2022/02/15 07:59:20;;;;;;;18.98;11.63;;;;;;;3.57;100.00;95462.44;5083469;28;25051;-75
2022/02/15 08:01:46;;;;;;;14.57;10.27;;;;;;;3.61;100.00;95467.34;5088537;28;24524;-76
2022/02/15 08:04:13;;;;;;;12.05;7.05;;;;;;;3.72;100.00;95468.66;5092686;28;25007;-75
2022/02/15 08:06:41;;;;;;;7.10;3.17;;;;;;;3.81;100.00;95475.94;5092332;28;24540;-76
2022/02/15 08:09:14;;;;;;;3.78;1.92;;;;;;;3.73;100.00;95476.25;5092694;28;24417;-76
2022/02/15 08:11:41;;;;;;;3.60;3.30;;;;;;;3.78;100.00;95476.06;5092653;28;24522;-75
2022/02/15 08:14:08;;;;;;;2.80;2.55;;;;;;;3.86;100.00;95474.88;5092492;28;25056;-76
2022/02/15 08:16:34;;;;;;;3.75;2.42;;;;;;;3.96;100.00;95471.94;5092373;28;24463;-76
2022/02/15 08:19:01;;;;;;;4.43;2.10;;;;;;;3.98;100.00;95478.66;5092237;28;24417;-76
2022/02/15 08:21:27;;;;;;;2.53;1.25;;;;;;;3.90;100.00;95477.31;5092287;28;24483;-77
2022/02/15 08:23:55;;;;;;;2.47;1.42;;;;;;;4.03;100.00;95486.16;5092396;28;24435;-76
2022/02/15 08:26:22;;;;;;;2.10;1.20;;;;;;;4.14;100.00;95496.78;5092471;28;24417;-77
2022/02/15 08:28:49;;;;;;;1.80;1.20;;;;;;;3.98;100.00;95503.47;5092026;28;24436;-75
2022/02/15 08:31:16;;;;;;;1.83;1.00;;;;;;;3.98;100.00;95504.28;5092152;28;24837;-76
2022/02/15 08:33:42;;;;;;;2.08;1.10;;;;;;;3.86;100.00;95505.63;5092075;28;24985;-75
2022/02/15 08:36:09;;;;;;;2.05;1.20;;;;;;;3.79;100.00;95511.06;5092034;28;24463;-77
2022/02/15 08:38:35;;;;;;;2.33;1.65;;;;;;;3.81;100.00;95512.66;5091996;28;24437;-76
2022/02/15 08:41:04;;;;;;;2.63;1.50;;;;;;;3.78;100.00;95515.34;5092093;28;24523;-76
2022/02/15 08:43:31;;;;;;;2.58;1.77;;;;;;;3.78;100.00;95509.38;5092088;28;24492;-77
2022/02/15 08:45:57;;;;;;;3.08;2.10;;;;;;;3.85;100.00;95514.19;5091936;28;24471;-76
2022/02/15 08:48:24;;;;;;;3.15;1.27;;;;;;;3.80;100.00;95513.53;5091761;28;24414;-76
2022/02/15 08:50:50;;;;;;;1.90;1.00;;;;;;;3.85;100.00;95515.91;5091471;28;24429;-76
2022/02/15 08:53:17;;;;;;;2.17;1.30;;;;;;;3.92;100.00;95517.34;5091909;28;24418;-77
2022/02/15 08:55:43;;;;;;;2.20;1.60;;;;;;;3.96;100.00;95526.56;5091885;28;24457;-76
2022/02/15 08:58:11;;;;;;;3.55;1.92;;;;;;;3.99;100.00;95526.44;5091740;28;24429;-75
2022/02/15 09:00:38;;;;;;;1.63;1.40;;;;;;;4.04;100.00;95532.22;5091495;28;24442;-75
2022/02/15 09:03:05;;;;;;;2.65;1.42;;;;;;;4.06;100.00;95534.72;5091488;28;24428;-76
2022/02/15 09:05:31;;;;;;;1.80;1.40;;;;;;;4.08;100.00;95538.91;5091196;28;24778;-77
2022/02/15 09:07:58;;;;;;;2.53;1.33;;;;;;;4.01;100.00;95540.03;5091538;28;24850;-76
2022/02/15 09:10:24;;;;;;;3.22;1.42;;;;;;;4.08;100.00;95546.59;5091026;28;24955;-77
2022/02/15 09:12:51;;;;;;;3.45;1.80;;;;;;;4.00;100.00;95534.97;5091910;28;24422;-77
2022/02/15 09:15:19;;;;;;;1.83;1.33;;;;;;;4.10;100.00;95542.22;5091423;28;24437;-77
2022/02/15 09:17:45;;;;;;;3.10;1.83;;;;;;;4.18;100.00;95541.91;5090950;28;24418;-77
2022/02/15 09:20:12;;;;;;;2.92;1.92;;;;;;;4.19;100.00;95543.59;5091387;28;24429;-77
2022/02/15 09:22:39;;;;;;;2.65;1.48;;;;;;;4.12;100.00;95550.69;5091339;28;25019;-77
2022/02/15 09:25:07;;;;;;;3.70;1.70;;;;;;;4.21;100.00;95554.59;5091931;28;24955;-77
2022/02/15 09:27:34;;;;;;;3.35;1.90;;;;;;;4.29;100.00;95552.53;5092015;28;24422;-77
2022/02/15 09:30:00;;;;;;;4.07;1.73;;;;;;;4.27;100.00;95550.94;5093309;28;24433;-79
2022/02/15 09:32:28;;;;;;;2.67;1.50;;;;;;;4.32;100.00;95557.53;5092252;28;24418;-77
2022/02/15 09:34:54;;;;;;;2.70;1.38;;;;;;;4.50;100.00;95548.25;5091876;28;24425;-77
2022/02/15 09:37:21;;;;;;;2.45;1.52;;;;;;;4.78;100.00;95552.19;5091301;28;24480;-77
2022/02/15 09:39:48;;;;;;;3.17;1.65;;;;;;;5.16;100.00;95553.06;5091935;28;24471;-77
2022/02/15 09:42:15;;;;;;;2.50;1.73;;;;;;;5.56;100.00;95553.78;5091269;28;24545;-75
2022/02/15 09:44:41;;;;;;;2.60;1.48;;;;;;;5.48;100.00;95550.75;5081262;28;24995;-76
2022/02/15 09:47:11;;;;;;;4.07;1.63;;;;;;;5.26;100.00;95550.91;5081086;28;24430;-78
2022/02/15 09:49:50;;;;;;;2.28;1.52;;;;;;;5.01;100.00;95564.03;5091279;28;24422;-73
2022/02/15 09:52:18;;;;;;;2.92;1.45;;;;;;;4.75;100.00;95567.72;5079124;28;24431;-76
2022/02/15 09:54:46;;;;;;;1.33;0.85;;;;;;;5.03;100.00;95555.34;5070519;28;24504;-77
2022/02/15 09:57:13;;;;;;;3.55;1.33;;;;;;;4.99;100.00;95569.22;5070330;28;24464;-77
2022/02/15 09:59:40;;;;;;;2.40;1.38;;;;;;;4.91;100.00;95567.88;5076771;28;24433;-77
2022/02/15 10:02:09;;;;;;;2.67;1.42;;;;;;;4.84;100.00;95560.44;5082116;28;24455;-77
2022/02/15 10:04:36;;;;;;;2.13;1.23;;;;;;;4.81;100.00;95570.00;5090559;28;24460;-76
2022/02/15 10:07:05;;;;;;;2.92;1.30;;;;;;;4.80;100.00;95571.75;5090542;28;24430;-77
2022/02/15 10:09:32;;;;;;;3.47;1.70;;;;;;;5.07;100.00;95576.56;5091067;28;24874;-76
2022/02/15 10:12:04;;;;;;;2.72;1.40;;;;;;;5.11;100.00;95575.53;5091914;28;24475;-77
2022/02/15 10:14:30;;;;;;;3.83;1.40;;;;;;;5.16;100.00;95577.91;5092051;28;24979;-77
2022/02/15 10:16:58;;;;;;;6.80;1.70;;;;;;;5.10;100.00;95581.56;5090417;28;24467;-76
2022/02/15 10:19:26;;;;;;;2.47;1.20;;;;;;;4.97;100.00;95578.72;5090500;28;24426;-76
2022/02/15 10:21:55;;;;;;;2.67;1.38;;;;;;;4.92;100.00;95580.63;5091108;28;25001;-76
2022/02/15 10:24:23;;;;;;;2.08;1.17;;;;;;;4.93;100.00;95584.03;5094706;28;24790;-76
2022/02/15 10:26:55;;;;;;;1.70;1.38;;;;;;;4.99;100.00;95584.59;5093844;28;24785;-76
2022/02/15 10:29:22;;;;;;;2.47;1.20;;;;;;;5.03;100.00;95587.88;5086137;28;24521;-76
2022/02/15 10:31:49;;;;;;;2.88;1.48;;;;;;;5.11;100.00;95593.50;5094478;28;24463;-76
2022/02/15 10:34:15;;;;;;;2.53;1.20;;;;;;;4.98;100.00;95600.09;5094537;28;24421;-75
2022/02/15 10:36:41;;;;;;;1.55;1.02;;;;;;;4.99;100.00;95606.88;5094105;28;25012;-76
2022/02/15 10:39:13;;;;;;;2.63;0.90;;;;;;;5.09;100.00;95596.16;5094313;28;24418;-76
2022/02/15 10:41:41;;;;;;;1.50;1.13;;;;;;;5.08;100.00;95603.94;5094374;28;24549;-76
2022/02/15 10:44:08;;;;;;;2.50;1.48;;;;;;;5.17;100.00;95598.38;5094604;28;24433;-75
2022/02/15 10:46:36;;;;;;;9.35;3.03;;;;;;;5.15;100.00;95602.72;5093976;28;25016;-76
2022/02/15 10:49:03;;;;;;;2.47;1.48;;;;;;;5.02;100.00;95615.28;5094365;28;24612;-76
2022/02/15 10:51:29;;;;;;;2.42;1.50;;;;;;;4.95;100.00;95613.88;5094108;28;24947;-77
2022/02/15 10:53:56;;;;;;;3.05;1.50;;;;;;;4.92;100.00;95613.19;5093857;28;24993;-77
2022/02/15 10:56:22;;;;;;;2.13;1.27;;;;;;;4.88;100.00;95620.16;5094300;28;24431;-77
2022/02/15 10:58:52;;;;;;;4.88;1.40;;;;;;;4.75;100.00;95624.16;5094152;28;24422;-76
2022/02/15 11:01:19;;;;;;;1.20;1.00;;;;;;;4.78;100.00;95624.03;5095483;28;24454;-77
2022/02/15 11:03:47;;;;;;;2.35;1.40;;;;;;;4.76;100.00;95628.41;5095097;28;24443;-77
2022/02/15 11:06:14;;;;;;;2.55;1.30;;;;;;;4.96;100.00;95636.06;5094873;28;24791;-77
2022/02/15 11:08:44;;;;;;;2.40;1.30;;;;;;;4.87;100.00;95633.91;5095109;28;24441;-77
2022/02/15 11:11:16;;;;;;;2.00;1.30;;;;;;;4.98;100.00;95641.97;5095045;28;24426;-77
2022/02/15 11:13:45;;;;;;;1.92;1.10;;;;;;;5.32;100.00;95637.94;5095470;28;24429;-77
2022/02/15 11:16:15;;;;;;;3.10;1.60;;;;;;;5.45;100.00;95631.38;5095427;28;24463;-77
2022/02/15 11:18:43;;;;;;;3.53;2.30;;;;;;;5.38;100.00;95626.56;5094697;28;24467;-76
2022/02/15 11:21:23;;;;;;;1.48;1.30;;;;;;;5.45;100.00;95631.38;5095096;28;24421;-78
2022/02/15 11:23:55;;;;;;;13.77;1.52;;;;;;;5.38;100.00;95640.25;5095062;28;24418;-77
2022/02/15 11:26:23;;;;;;;7.90;2.15;;;;;;;5.20;100.00;95641.06;5095170;28;24421;-77
2022/02/15 11:28:50;;;;;;;2.33;1.48;;;;;;;5.24;100.00;95634.88;5094636;28;24971;-77
2022/02/15 11:31:29;;;;;;;3.15;1.63;;;;;;;5.27;100.00;95640.72;5094404;28;24422;-77
2022/02/15 11:33:57;;;;;;;7.05;2.00;;;;;;;5.27;100.00;95647.59;5094577;28;24426;-77
2022/02/15 11:36:24;;;;;;;3.30;2.03;;;;;;;5.20;100.00;95641.88;5094475;28;24479;-77